Página principal
METAR-TAF:

METAR-TAF

Aeroportos :

Aeroporto Internacional de Benina

Bengasi, Líbia

latitude: 32-06N, longitude: 020-16E, altura: 131 m

METAR: em falta

Hora: 18:39 (16:39 UTC)

Previsão

O boletim foi feito há 5 horas e 39 minutos, às 11:00 UTC
Previsão válida de 21 às 12 UTC a 22 às 12 UTC
Vento 10 kt de oes-noroeste
Visibilidade 10 km ou mais
Poucas nuvensa uma altura de 3000 ft
Tornando-se
de 21 às 18 UTC a 21 às 20 UTC
Vento 2 kt com direcção variável
Visibilidade: 8000 m
Tornando-se
de 22 às 06 UTC a 22 às 08 UTC
Vento 10 kt de nor-noroeste

TAF: HLLB 211100Z 2112/2212 30010KT 9999 FEW030 BECMG 2118/2120 VRB02KT 8000 NSC BECMG 2206/2208 33010KT

Observações e previsões do tempo de mais de 4000 aeroportos (mensagens METAR e TAF).

As estações disponíveis são os pontos amarelos e vermelhos sobre o mapa.

Mova o rato sobre o mapa para ver o nome da estação.

Depois clique no ponto para visualizar as observações e previsões meteorológicas.

Para alterar o mapa : clique nos botões verdes com uma cruz preta para aumentar o zoom; no botão verde com uma pitada de zoom; ou nas setas verdes para mapas adjacentes.


METAR-TAF: